sensor_id;sensor_type;location;lat;lon;timestamp;P1;durP1;ratioP1;P2;durP2;ratioP2
57055;SDS011;42945;51.718;5.324;2023-05-07T00:01:02;14.73;;;10.77;;
57055;SDS011;42945;51.718;5.324;2023-05-07T00:03:28;15.32;;;10.60;;
57055;SDS011;42945;51.718;5.324;2023-05-07T00:05:53;16.05;;;10.55;;
57055;SDS011;42945;51.718;5.324;2023-05-07T00:08:19;17.67;;;10.93;;
57055;SDS011;42945;51.718;5.324;2023-05-07T00:10:45;17.90;;;10.38;;
57055;SDS011;42945;51.718;5.324;2023-05-07T00:13:11;14.10;;;10.70;;
57055;SDS011;42945;51.718;5.324;2023-05-07T00:15:36;16.70;;;11.02;;
57055;SDS011;42945;51.718;5.324;2023-05-07T00:18:02;15.75;;;11.18;;
57055;SDS011;42945;51.718;5.324;2023-05-07T00:20:27;14.05;;;9.52;;
57055;SDS011;42945;51.718;5.324;2023-05-07T00:22:52;13.35;;;9.20;;
57055;SDS011;42945;51.718;5.324;2023-05-07T00:25:18;13.07;;;9.00;;
57055;SDS011;42945;51.718;5.324;2023-05-07T00:27:44;14.40;;;9.10;;
57055;SDS011;42945;51.718;5.324;2023-05-07T00:30:10;12.18;;;9.57;;
57055;SDS011;42945;51.718;5.324;2023-05-07T00:32:36;12.38;;;9.18;;
57055;SDS011;42945;51.718;5.324;2023-05-07T00:35:01;12.93;;;8.57;;
57055;SDS011;42945;51.718;5.324;2023-05-07T00:37:27;14.10;;;8.68;;
57055;SDS011;42945;51.718;5.324;2023-05-07T00:39:52;13.25;;;9.30;;
57055;SDS011;42945;51.718;5.324;2023-05-07T00:42:18;12.48;;;8.52;;
57055;SDS011;42945;51.718;5.324;2023-05-07T00:44:43;12.10;;;8.02;;
57055;SDS011;42945;51.718;5.324;2023-05-07T00:47:08;15.13;;;8.20;;
57055;SDS011;42945;51.718;5.324;2023-05-07T00:52:10;10.75;;;8.18;;
57055;SDS011;42945;51.718;5.324;2023-05-07T00:54:38;10.93;;;8.10;;
57055;SDS011;42945;51.718;5.324;2023-05-07T00:57:05;11.45;;;7.95;;
57055;SDS011;42945;51.718;5.324;2023-05-07T00:59:31;10.65;;;7.60;;
57055;SDS011;42945;51.718;5.324;2023-05-07T01:01:57;9.52;;;7.63;;
57055;SDS011;42945;51.718;5.324;2023-05-07T01:04:23;11.63;;;7.70;;
57055;SDS011;42945;51.718;5.324;2023-05-07T01:06:49;11.02;;;7.72;;
57055;SDS011;42945;51.718;5.324;2023-05-07T01:09:15;13.93;;;8.30;;
57055;SDS011;42945;51.718;5.324;2023-05-07T01:11:41;11.88;;;7.85;;
57055;SDS011;42945;51.718;5.324;2023-05-07T01:14:08;13.27;;;8.32;;
57055;SDS011;42945;51.718;5.324;2023-05-07T01:16:34;10.95;;;8.52;;
57055;SDS011;42945;51.718;5.324;2023-05-07T01:19:00;11.18;;;8.80;;
57055;SDS011;42945;51.718;5.324;2023-05-07T01:21:26;10.88;;;8.13;;
57055;SDS011;42945;51.718;5.324;2023-05-07T01:23:52;11.85;;;8.38;;
57055;SDS011;42945;51.718;5.324;2023-05-07T01:26:19;13.85;;;8.18;;
57055;SDS011;42945;51.718;5.324;2023-05-07T01:28:45;12.50;;;8.38;;
57055;SDS011;42945;51.718;5.324;2023-05-07T01:31:11;14.45;;;8.20;;
57055;SDS011;42945;51.718;5.324;2023-05-07T01:33:38;13.43;;;8.75;;
57055;SDS011;42945;51.718;5.324;2023-05-07T01:36:07;12.10;;;8.73;;
57055;SDS011;42945;51.718;5.324;2023-05-07T01:38:34;11.48;;;8.88;;
57055;SDS011;42945;51.718;5.324;2023-05-07T01:41:01;11.98;;;8.70;;
57055;SDS011;42945;51.718;5.324;2023-05-07T01:43:27;14.95;;;9.27;;
57055;SDS011;42945;51.718;5.324;2023-05-07T01:45:53;13.10;;;9.35;;
57055;SDS011;42945;51.718;5.324;2023-05-07T01:48:19;14.25;;;9.68;;
57055;SDS011;42945;51.718;5.324;2023-05-07T01:50:45;15.63;;;9.48;;
57055;SDS011;42945;51.718;5.324;2023-05-07T01:53:11;15.00;;;9.30;;
57055;SDS011;42945;51.718;5.324;2023-05-07T01:55:36;14.60;;;9.27;;
57055;SDS011;42945;51.718;5.324;2023-05-07T01:58:02;12.57;;;9.38;;
57055;SDS011;42945;51.718;5.324;2023-05-07T02:00:28;12.98;;;9.15;;
57055;SDS011;42945;51.718;5.324;2023-05-07T02:02:54;15.32;;;9.48;;
57055;SDS011;42945;51.718;5.324;2023-05-07T02:05:19;12.60;;;9.35;;
57055;SDS011;42945;51.718;5.324;2023-05-07T02:07:45;14.07;;;9.75;;
57055;SDS011;42945;51.718;5.324;2023-05-07T02:10:10;14.27;;;9.75;;
57055;SDS011;42945;51.718;5.324;2023-05-07T02:12:35;13.43;;;9.77;;
57055;SDS011;42945;51.718;5.324;2023-05-07T02:15:01;17.02;;;10.30;;
57055;SDS011;42945;51.718;5.324;2023-05-07T02:17:26;14.23;;;9.82;;
57055;SDS011;42945;51.718;5.324;2023-05-07T02:19:51;14.82;;;10.02;;
57055;SDS011;42945;51.718;5.324;2023-05-07T02:22:17;19.40;;;10.82;;
57055;SDS011;42945;51.718;5.324;2023-05-07T02:24:42;15.75;;;10.45;;
57055;SDS011;42945;51.718;5.324;2023-05-07T02:27:09;22.17;;;10.77;;
57055;SDS011;42945;51.718;5.324;2023-05-07T02:29:34;16.88;;;11.50;;
57055;SDS011;42945;51.718;5.324;2023-05-07T02:32:00;15.18;;;11.00;;
57055;SDS011;42945;51.718;5.324;2023-05-07T02:34:25;18.38;;;11.75;;
57055;SDS011;42945;51.718;5.324;2023-05-07T02:36:50;19.90;;;12.23;;
57055;SDS011;42945;51.718;5.324;2023-05-07T02:39:16;20.30;;;11.70;;
57055;SDS011;42945;51.718;5.324;2023-05-07T02:41:44;18.38;;;12.43;;
57055;SDS011;42945;51.718;5.324;2023-05-07T02:44:09;18.83;;;12.63;;
57055;SDS011;42945;51.718;5.324;2023-05-07T02:46:35;17.98;;;12.93;;
57055;SDS011;42945;51.718;5.324;2023-05-07T02:49:00;20.15;;;13.40;;
57055;SDS011;42945;51.718;5.324;2023-05-07T02:51:25;20.67;;;13.18;;
57055;SDS011;42945;51.718;5.324;2023-05-07T02:53:51;19.20;;;13.38;;
57055;SDS011;42945;51.718;5.324;2023-05-07T02:56:17;20.38;;;13.20;;
57055;SDS011;42945;51.718;5.324;2023-05-07T02:58:42;18.77;;;13.40;;
57055;SDS011;42945;51.718;5.324;2023-05-07T03:01:08;20.48;;;13.43;;
57055;SDS011;42945;51.718;5.324;2023-05-07T03:03:34;20.52;;;13.95;;
57055;SDS011;42945;51.718;5.324;2023-05-07T03:06:00;21.63;;;14.23;;
57055;SDS011;42945;51.718;5.324;2023-05-07T03:08:25;22.65;;;14.35;;
57055;SDS011;42945;51.718;5.324;2023-05-07T03:10:50;23.20;;;14.20;;
57055;SDS011;42945;51.718;5.324;2023-05-07T03:13:16;24.67;;;15.25;;
57055;SDS011;42945;51.718;5.324;2023-05-07T03:15:41;23.10;;;14.85;;
57055;SDS011;42945;51.718;5.324;2023-05-07T03:18:07;21.33;;;15.02;;
57055;SDS011;42945;51.718;5.324;2023-05-07T03:20:32;24.67;;;15.20;;
57055;SDS011;42945;51.718;5.324;2023-05-07T03:22:57;25.35;;;14.75;;
57055;SDS011;42945;51.718;5.324;2023-05-07T03:25:24;24.02;;;15.43;;
57055;SDS011;42945;51.718;5.324;2023-05-07T03:27:49;22.67;;;15.82;;
57055;SDS011;42945;51.718;5.324;2023-05-07T03:30:15;24.30;;;16.30;;
57055;SDS011;42945;51.718;5.324;2023-05-07T03:32:40;22.23;;;15.45;;
57055;SDS011;42945;51.718;5.324;2023-05-07T03:35:06;22.90;;;15.68;;
57055;SDS011;42945;51.718;5.324;2023-05-07T03:37:32;24.23;;;16.30;;
57055;SDS011;42945;51.718;5.324;2023-05-07T03:39:57;24.40;;;15.75;;
57055;SDS011;42945;51.718;5.324;2023-05-07T03:42:22;22.77;;;16.33;;
57055;SDS011;42945;51.718;5.324;2023-05-07T03:44:48;26.92;;;16.88;;
57055;SDS011;42945;51.718;5.324;2023-05-07T03:47:13;25.98;;;16.38;;
57055;SDS011;42945;51.718;5.324;2023-05-07T03:49:39;26.27;;;16.88;;
57055;SDS011;42945;51.718;5.324;2023-05-07T03:52:05;23.85;;;17.50;;
57055;SDS011;42945;51.718;5.324;2023-05-07T03:54:30;27.35;;;16.88;;
57055;SDS011;42945;51.718;5.324;2023-05-07T03:56:56;28.23;;;18.35;;
57055;SDS011;42945;51.718;5.324;2023-05-07T03:59:21;29.17;;;17.33;;
57055;SDS011;42945;51.718;5.324;2023-05-07T04:01:47;26.35;;;17.08;;
57055;SDS011;42945;51.718;5.324;2023-05-07T04:04:13;28.52;;;18.02;;
57055;SDS011;42945;51.718;5.324;2023-05-07T04:06:39;30.80;;;18.10;;
57055;SDS011;42945;51.718;5.324;2023-05-07T04:09:05;24.65;;;17.52;;
57055;SDS011;42945;51.718;5.324;2023-05-07T04:11:30;27.80;;;18.75;;
57055;SDS011;42945;51.718;5.324;2023-05-07T04:13:55;25.20;;;18.73;;
57055;SDS011;42945;51.718;5.324;2023-05-07T04:16:20;31.48;;;19.27;;
57055;SDS011;42945;51.718;5.324;2023-05-07T04:18:46;27.50;;;18.48;;
57055;SDS011;42945;51.718;5.324;2023-05-07T04:21:15;28.65;;;19.40;;
57055;SDS011;42945;51.718;5.324;2023-05-07T04:23:42;29.35;;;18.80;;
57055;SDS011;42945;51.718;5.324;2023-05-07T04:26:07;29.40;;;19.75;;
57055;SDS011;42945;51.718;5.324;2023-05-07T04:28:32;30.23;;;19.92;;
57055;SDS011;42945;51.718;5.324;2023-05-07T04:30:59;33.60;;;19.65;;
57055;SDS011;42945;51.718;5.324;2023-05-07T04:33:24;30.70;;;20.38;;
57055;SDS011;42945;51.718;5.324;2023-05-07T04:35:49;30.65;;;20.10;;
57055;SDS011;42945;51.718;5.324;2023-05-07T04:38:15;29.75;;;20.90;;
57055;SDS011;42945;51.718;5.324;2023-05-07T04:40:41;33.10;;;21.33;;
57055;SDS011;42945;51.718;5.324;2023-05-07T04:43:07;31.05;;;21.45;;
57055;SDS011;42945;51.718;5.324;2023-05-07T04:45:34;32.17;;;22.67;;
57055;SDS011;42945;51.718;5.324;2023-05-07T04:47:59;36.08;;;23.10;;
57055;SDS011;42945;51.718;5.324;2023-05-07T04:50:25;33.53;;;22.40;;
57055;SDS011;42945;51.718;5.324;2023-05-07T04:52:50;33.15;;;22.85;;
57055;SDS011;42945;51.718;5.324;2023-05-07T04:55:16;34.10;;;23.17;;
57055;SDS011;42945;51.718;5.324;2023-05-07T04:57:41;32.22;;;23.13;;
57055;SDS011;42945;51.718;5.324;2023-05-07T05:00:06;38.03;;;22.75;;
57055;SDS011;42945;51.718;5.324;2023-05-07T05:02:34;35.38;;;23.45;;
57055;SDS011;42945;51.718;5.324;2023-05-07T05:04:59;34.10;;;23.33;;
57055;SDS011;42945;51.718;5.324;2023-05-07T05:07:26;34.38;;;22.33;;
57055;SDS011;42945;51.718;5.324;2023-05-07T05:09:52;32.17;;;22.77;;
57055;SDS011;42945;51.718;5.324;2023-05-07T05:12:17;36.92;;;23.55;;
57055;SDS011;42945;51.718;5.324;2023-05-07T05:14:42;32.83;;;23.10;;
57055;SDS011;42945;51.718;5.324;2023-05-07T05:17:08;34.00;;;22.98;;
57055;SDS011;42945;51.718;5.324;2023-05-07T05:19:33;33.67;;;23.75;;
57055;SDS011;42945;51.718;5.324;2023-05-07T05:21:58;32.22;;;22.90;;
57055;SDS011;42945;51.718;5.324;2023-05-07T05:24:25;41.33;;;24.35;;
57055;SDS011;42945;51.718;5.324;2023-05-07T05:26:52;38.13;;;25.02;;
57055;SDS011;42945;51.718;5.324;2023-05-07T05:29:18;37.45;;;25.20;;
57055;SDS011;42945;51.718;5.324;2023-05-07T05:31:43;37.65;;;24.63;;
57055;SDS011;42945;51.718;5.324;2023-05-07T05:34:08;37.40;;;25.30;;
57055;SDS011;42945;51.718;5.324;2023-05-07T05:36:34;36.33;;;24.90;;
57055;SDS011;42945;51.718;5.324;2023-05-07T05:38:59;36.45;;;24.88;;
57055;SDS011;42945;51.718;5.324;2023-05-07T05:41:24;39.65;;;25.73;;
57055;SDS011;42945;51.718;5.324;2023-05-07T05:43:50;38.20;;;25.17;;
57055;SDS011;42945;51.718;5.324;2023-05-07T05:46:15;36.67;;;25.30;;
57055;SDS011;42945;51.718;5.324;2023-05-07T05:48:40;38.70;;;25.23;;
57055;SDS011;42945;51.718;5.324;2023-05-07T05:51:06;36.08;;;25.35;;
57055;SDS011;42945;51.718;5.324;2023-05-07T05:53:31;40.97;;;26.48;;
57055;SDS011;42945;51.718;5.324;2023-05-07T05:55:56;41.10;;;26.20;;
57055;SDS011;42945;51.718;5.324;2023-05-07T05:58:22;42.85;;;26.33;;
57055;SDS011;42945;51.718;5.324;2023-05-07T06:00:47;38.33;;;26.50;;
57055;SDS011;42945;51.718;5.324;2023-05-07T06:03:13;38.47;;;26.17;;
57055;SDS011;42945;51.718;5.324;2023-05-07T06:05:39;38.58;;;26.55;;
57055;SDS011;42945;51.718;5.324;2023-05-07T06:08:04;42.67;;;27.50;;
57055;SDS011;42945;51.718;5.324;2023-05-07T06:10:29;40.35;;;27.77;;
57055;SDS011;42945;51.718;5.324;2023-05-07T06:12:55;38.60;;;26.67;;
57055;SDS011;42945;51.718;5.324;2023-05-07T06:15:20;39.80;;;27.48;;
57055;SDS011;42945;51.718;5.324;2023-05-07T06:17:46;38.60;;;26.50;;
57055;SDS011;42945;51.718;5.324;2023-05-07T06:20:12;36.80;;;26.67;;
57055;SDS011;42945;51.718;5.324;2023-05-07T06:22:37;34.92;;;24.80;;
57055;SDS011;42945;51.718;5.324;2023-05-07T06:25:03;40.60;;;26.70;;
57055;SDS011;42945;51.718;5.324;2023-05-07T06:27:28;36.88;;;24.50;;
57055;SDS011;42945;51.718;5.324;2023-05-07T06:29:53;37.65;;;25.35;;
57055;SDS011;42945;51.718;5.324;2023-05-07T06:32:19;37.35;;;26.00;;
57055;SDS011;42945;51.718;5.324;2023-05-07T06:34:45;37.25;;;25.92;;
57055;SDS011;42945;51.718;5.324;2023-05-07T06:37:11;33.92;;;24.88;;
57055;SDS011;42945;51.718;5.324;2023-05-07T06:39:36;37.13;;;25.13;;
57055;SDS011;42945;51.718;5.324;2023-05-07T06:42:01;37.33;;;25.20;;
57055;SDS011;42945;51.718;5.324;2023-05-07T06:44:27;33.60;;;24.17;;
57055;SDS011;42945;51.718;5.324;2023-05-07T06:46:53;34.85;;;24.90;;
57055;SDS011;42945;51.718;5.324;2023-05-07T06:49:18;30.58;;;22.77;;
57055;SDS011;42945;51.718;5.324;2023-05-07T06:51:43;37.30;;;24.30;;
57055;SDS011;42945;51.718;5.324;2023-05-07T06:54:09;32.97;;;23.27;;
57055;SDS011;42945;51.718;5.324;2023-05-07T06:56:34;34.10;;;23.90;;
57055;SDS011;42945;51.718;5.324;2023-05-07T06:59:00;37.83;;;23.50;;
57055;SDS011;42945;51.718;5.324;2023-05-07T07:01:26;33.58;;;21.77;;
57055;SDS011;42945;51.718;5.324;2023-05-07T07:03:51;29.95;;;20.92;;
57055;SDS011;42945;51.718;5.324;2023-05-07T07:06:16;31.42;;;21.50;;
57055;SDS011;42945;51.718;5.324;2023-05-07T07:08:42;30.45;;;20.85;;
57055;SDS011;42945;51.718;5.324;2023-05-07T07:11:08;29.98;;;20.63;;
57055;SDS011;42945;51.718;5.324;2023-05-07T07:13:35;26.00;;;19.38;;
57055;SDS011;42945;51.718;5.324;2023-05-07T07:16:01;28.67;;;20.50;;
57055;SDS011;42945;51.718;5.324;2023-05-07T07:18:26;31.52;;;19.95;;
57055;SDS011;42945;51.718;5.324;2023-05-07T07:20:51;30.05;;;20.27;;
57055;SDS011;42945;51.718;5.324;2023-05-07T07:23:16;29.63;;;20.92;;
57055;SDS011;42945;51.718;5.324;2023-05-07T07:25:42;25.33;;;19.25;;
57055;SDS011;42945;51.718;5.324;2023-05-07T07:28:07;30.75;;;20.02;;
57055;SDS011;42945;51.718;5.324;2023-05-07T07:30:33;26.20;;;19.70;;
57055;SDS011;42945;51.718;5.324;2023-05-07T07:32:58;28.20;;;19.42;;
57055;SDS011;42945;51.718;5.324;2023-05-07T07:35:31;26.00;;;18.48;;
57055;SDS011;42945;51.718;5.324;2023-05-07T07:37:59;29.10;;;18.42;;
57055;SDS011;42945;51.718;5.324;2023-05-07T07:40:24;24.80;;;18.50;;
57055;SDS011;42945;51.718;5.324;2023-05-07T07:42:50;24.52;;;18.10;;
57055;SDS011;42945;51.718;5.324;2023-05-07T07:45:16;27.30;;;18.45;;
57055;SDS011;42945;51.718;5.324;2023-05-07T07:47:41;26.13;;;18.02;;
57055;SDS011;42945;51.718;5.324;2023-05-07T07:50:07;30.65;;;18.30;;
57055;SDS011;42945;51.718;5.324;2023-05-07T07:52:33;25.20;;;18.52;;
57055;SDS011;42945;51.718;5.324;2023-05-07T07:54:58;22.58;;;17.50;;
57055;SDS011;42945;51.718;5.324;2023-05-07T07:57:24;26.63;;;17.60;;
57055;SDS011;42945;51.718;5.324;2023-05-07T07:59:49;25.10;;;17.73;;
57055;SDS011;42945;51.718;5.324;2023-05-07T08:02:15;22.50;;;17.25;;
57055;SDS011;42945;51.718;5.324;2023-05-07T08:04:40;22.80;;;16.98;;
57055;SDS011;42945;51.718;5.324;2023-05-07T08:07:08;23.90;;;17.15;;
57055;SDS011;42945;51.718;5.324;2023-05-07T08:09:34;24.35;;;17.55;;
57055;SDS011;42945;51.718;5.324;2023-05-07T08:11:59;26.73;;;17.55;;
57055;SDS011;42945;51.718;5.324;2023-05-07T08:14:25;28.73;;;16.58;;
57055;SDS011;42945;51.718;5.324;2023-05-07T08:16:53;27.10;;;17.33;;
57055;SDS011;42945;51.718;5.324;2023-05-07T08:19:19;22.45;;;16.30;;
57055;SDS011;42945;51.718;5.324;2023-05-07T08:21:44;21.45;;;16.50;;
57055;SDS011;42945;51.718;5.324;2023-05-07T08:24:12;23.42;;;16.48;;
57055;SDS011;42945;51.718;5.324;2023-05-07T08:26:37;25.95;;;16.80;;
57055;SDS011;42945;51.718;5.324;2023-05-07T08:29:04;22.67;;;15.93;;
57055;SDS011;42945;51.718;5.324;2023-05-07T08:31:29;21.23;;;15.55;;
57055;SDS011;42945;51.718;5.324;2023-05-07T08:33:55;19.90;;;15.95;;
57055;SDS011;42945;51.718;5.324;2023-05-07T08:36:21;25.98;;;15.98;;
57055;SDS011;42945;51.718;5.324;2023-05-07T08:38:46;26.35;;;16.63;;
57055;SDS011;42945;51.718;5.324;2023-05-07T08:41:11;23.75;;;15.55;;
57055;SDS011;42945;51.718;5.324;2023-05-07T08:43:36;20.48;;;14.02;;
57055;SDS011;42945;51.718;5.324;2023-05-07T08:46:02;20.90;;;14.90;;
57055;SDS011;42945;51.718;5.324;2023-05-07T08:48:29;21.88;;;14.10;;
57055;SDS011;42945;51.718;5.324;2023-05-07T08:50:57;17.35;;;14.07;;
57055;SDS011;42945;51.718;5.324;2023-05-07T08:53:23;19.30;;;13.32;;
57055;SDS011;42945;51.718;5.324;2023-05-07T08:55:49;22.65;;;13.38;;
57055;SDS011;42945;51.718;5.324;2023-05-07T08:58:15;16.90;;;12.23;;
57055;SDS011;42945;51.718;5.324;2023-05-07T09:00:40;17.67;;;13.27;;
57055;SDS011;42945;51.718;5.324;2023-05-07T09:03:06;17.58;;;13.02;;
57055;SDS011;42945;51.718;5.324;2023-05-07T09:05:32;17.08;;;12.63;;
57055;SDS011;42945;51.718;5.324;2023-05-07T09:08:01;17.45;;;13.00;;
57055;SDS011;42945;51.718;5.324;2023-05-07T09:10:27;18.95;;;13.13;;
57055;SDS011;42945;51.718;5.324;2023-05-07T09:12:54;66.68;;;32.92;;
57055;SDS011;42945;51.718;5.324;2023-05-07T09:15:20;20.13;;;13.40;;
57055;SDS011;42945;51.718;5.324;2023-05-07T09:17:45;46.78;;;23.73;;
57055;SDS011;42945;51.718;5.324;2023-05-07T09:20:10;39.42;;;23.60;;
57055;SDS011;42945;51.718;5.324;2023-05-07T09:22:36;17.98;;;13.10;;
57055;SDS011;42945;51.718;5.324;2023-05-07T09:25:02;18.77;;;13.02;;
57055;SDS011;42945;51.718;5.324;2023-05-07T09:27:28;15.25;;;12.05;;
57055;SDS011;42945;51.718;5.324;2023-05-07T09:29:53;16.05;;;11.95;;
57055;SDS011;42945;51.718;5.324;2023-05-07T09:32:19;15.30;;;11.85;;
57055;SDS011;42945;51.718;5.324;2023-05-07T09:34:44;16.98;;;12.05;;
57055;SDS011;42945;51.718;5.324;2023-05-07T09:37:10;15.30;;;11.82;;
57055;SDS011;42945;51.718;5.324;2023-05-07T09:39:48;15.85;;;11.52;;
57055;SDS011;42945;51.718;5.324;2023-05-07T09:42:14;25.05;;;15.75;;
57055;SDS011;42945;51.718;5.324;2023-05-07T09:44:40;20.05;;;12.13;;
57055;SDS011;42945;51.718;5.324;2023-05-07T09:47:07;17.88;;;11.88;;
57055;SDS011;42945;51.718;5.324;2023-05-07T09:49:34;17.60;;;12.30;;
57055;SDS011;42945;51.718;5.324;2023-05-07T09:52:01;17.10;;;11.50;;
57055;SDS011;42945;51.718;5.324;2023-05-07T09:54:28;15.20;;;11.88;;
57055;SDS011;42945;51.718;5.324;2023-05-07T09:56:54;21.38;;;12.70;;
57055;SDS011;42945;51.718;5.324;2023-05-07T09:59:20;17.40;;;12.27;;
57055;SDS011;42945;51.718;5.324;2023-05-07T10:01:47;14.98;;;11.38;;
57055;SDS011;42945;51.718;5.324;2023-05-07T10:04:13;19.52;;;12.02;;
57055;SDS011;42945;51.718;5.324;2023-05-07T10:06:39;16.88;;;12.00;;
57055;SDS011;42945;51.718;5.324;2023-05-07T10:09:06;15.63;;;12.63;;
57055;SDS011;42945;51.718;5.324;2023-05-07T10:11:33;15.18;;;11.80;;
57055;SDS011;42945;51.718;5.324;2023-05-07T10:13:59;17.15;;;12.15;;
57055;SDS011;42945;51.718;5.324;2023-05-07T10:16:26;17.00;;;11.57;;
57055;SDS011;42945;51.718;5.324;2023-05-07T10:18:52;16.23;;;11.15;;
57055;SDS011;42945;51.718;5.324;2023-05-07T10:21:19;14.85;;;11.32;;
57055;SDS011;42945;51.718;5.324;2023-05-07T10:23:51;14.95;;;11.98;;
57055;SDS011;42945;51.718;5.324;2023-05-07T10:26:22;15.73;;;12.15;;
57055;SDS011;42945;51.718;5.324;2023-05-07T10:28:51;19.83;;;12.05;;
57055;SDS011;42945;51.718;5.324;2023-05-07T10:33:59;15.65;;;11.95;;
57055;SDS011;42945;51.718;5.324;2023-05-07T10:36:27;14.55;;;11.98;;
57055;SDS011;42945;51.718;5.324;2023-05-07T10:38:53;17.67;;;11.40;;
57055;SDS011;42945;51.718;5.324;2023-05-07T10:41:19;15.32;;;11.77;;
57055;SDS011;42945;51.718;5.324;2023-05-07T10:43:46;15.05;;;11.35;;
57055;SDS011;42945;51.718;5.324;2023-05-07T10:46:14;15.95;;;11.80;;
57055;SDS011;42945;51.718;5.324;2023-05-07T10:51:25;16.15;;;11.48;;
57055;SDS011;42945;51.718;5.324;2023-05-07T10:56:34;16.75;;;11.93;;
57055;SDS011;42945;51.718;5.324;2023-05-07T11:02:04;15.75;;;11.45;;
57055;SDS011;42945;51.718;5.324;2023-05-07T11:04:32;16.17;;;10.77;;
57055;SDS011;42945;51.718;5.324;2023-05-07T11:15:11;13.80;;;10.98;;
57055;SDS011;42945;51.718;5.324;2023-05-07T11:20:20;16.17;;;11.85;;
57055;SDS011;42945;51.718;5.324;2023-05-07T11:22:46;18.75;;;12.30;;
57055;SDS011;42945;51.718;5.324;2023-05-07T11:25:14;16.42;;;13.30;;
57055;SDS011;42945;51.718;5.324;2023-05-07T11:27:42;18.08;;;14.55;;
57055;SDS011;42945;51.718;5.324;2023-05-07T11:30:08;19.05;;;15.20;;
57055;SDS011;42945;51.718;5.324;2023-05-07T11:32:34;19.88;;;14.60;;
57055;SDS011;42945;51.718;5.324;2023-05-07T11:35:00;19.45;;;15.43;;
57055;SDS011;42945;51.718;5.324;2023-05-07T11:37:26;18.75;;;14.15;;
57055;SDS011;42945;51.718;5.324;2023-05-07T11:42:35;20.45;;;14.70;;
57055;SDS011;42945;51.718;5.324;2023-05-07T11:45:03;20.27;;;13.90;;
57055;SDS011;42945;51.718;5.324;2023-05-07T11:47:32;16.90;;;14.13;;
57055;SDS011;42945;51.718;5.324;2023-05-07T11:50:02;17.45;;;13.90;;
57055;SDS011;42945;51.718;5.324;2023-05-07T11:52:32;20.60;;;14.02;;
57055;SDS011;42945;51.718;5.324;2023-05-07T11:54:58;16.90;;;13.77;;
57055;SDS011;42945;51.718;5.324;2023-05-07T11:57:25;18.25;;;12.75;;
57055;SDS011;42945;51.718;5.324;2023-05-07T12:02:20;15.57;;;12.55;;
57055;SDS011;42945;51.718;5.324;2023-05-07T12:04:45;16.45;;;11.63;;
57055;SDS011;42945;51.718;5.324;2023-05-07T12:07:11;12.63;;;10.45;;
57055;SDS011;42945;51.718;5.324;2023-05-07T12:09:40;12.60;;;9.57;;
57055;SDS011;42945;51.718;5.324;2023-05-07T12:12:06;11.40;;;9.82;;
57055;SDS011;42945;51.718;5.324;2023-05-07T12:14:32;12.18;;;9.13;;
57055;SDS011;42945;51.718;5.324;2023-05-07T12:17:00;13.82;;;10.00;;
57055;SDS011;42945;51.718;5.324;2023-05-07T12:19:30;14.25;;;9.75;;
57055;SDS011;42945;51.718;5.324;2023-05-07T12:21:56;13.05;;;9.63;;
57055;SDS011;42945;51.718;5.324;2023-05-07T12:24:22;13.75;;;9.07;;
57055;SDS011;42945;51.718;5.324;2023-05-07T12:26:48;12.07;;;9.30;;
57055;SDS011;42945;51.718;5.324;2023-05-07T12:29:13;12.57;;;9.73;;
57055;SDS011;42945;51.718;5.324;2023-05-07T12:31:42;18.27;;;10.27;;
57055;SDS011;42945;51.718;5.324;2023-05-07T12:34:10;13.82;;;10.00;;
57055;SDS011;42945;51.718;5.324;2023-05-07T12:36:40;12.60;;;9.50;;
57055;SDS011;42945;51.718;5.324;2023-05-07T12:39:08;14.55;;;10.05;;
57055;SDS011;42945;51.718;5.324;2023-05-07T12:44:19;12.25;;;9.60;;
57055;SDS011;42945;51.718;5.324;2023-05-07T12:46:44;13.18;;;9.25;;
57055;SDS011;42945;51.718;5.324;2023-05-07T12:49:11;12.68;;;8.93;;
57055;SDS011;42945;51.718;5.324;2023-05-07T12:51:37;12.05;;;9.48;;
57055;SDS011;42945;51.718;5.324;2023-05-07T12:54:02;11.77;;;9.02;;
57055;SDS011;42945;51.718;5.324;2023-05-07T12:56:30;12.43;;;8.95;;
57055;SDS011;42945;51.718;5.324;2023-05-07T12:58:57;13.50;;;10.27;;
57055;SDS011;42945;51.718;5.324;2023-05-07T13:01:28;11.82;;;8.90;;
57055;SDS011;42945;51.718;5.324;2023-05-07T13:03:54;14.18;;;9.52;;
57055;SDS011;42945;51.718;5.324;2023-05-07T13:06:20;11.65;;;9.85;;
57055;SDS011;42945;51.718;5.324;2023-05-07T13:08:45;11.93;;;9.13;;
57055;SDS011;42945;51.718;5.324;2023-05-07T13:11:10;12.45;;;9.32;;
57055;SDS011;42945;51.718;5.324;2023-05-07T13:13:37;14.60;;;10.13;;
57055;SDS011;42945;51.718;5.324;2023-05-07T13:16:05;13.20;;;9.38;;
57055;SDS011;42945;51.718;5.324;2023-05-07T13:18:31;16.52;;;9.40;;
57055;SDS011;42945;51.718;5.324;2023-05-07T13:20:57;12.50;;;9.90;;
57055;SDS011;42945;51.718;5.324;2023-05-07T13:23:23;13.73;;;9.27;;
57055;SDS011;42945;51.718;5.324;2023-05-07T13:25:49;11.38;;;9.40;;
57055;SDS011;42945;51.718;5.324;2023-05-07T13:28:21;11.77;;;9.55;;
57055;SDS011;42945;51.718;5.324;2023-05-07T13:30:47;12.63;;;10.15;;
57055;SDS011;42945;51.718;5.324;2023-05-07T13:33:12;15.45;;;9.90;;
57055;SDS011;42945;51.718;5.324;2023-05-07T13:35:38;14.43;;;9.68;;
57055;SDS011;42945;51.718;5.324;2023-05-07T13:38:03;12.98;;;9.98;;
57055;SDS011;42945;51.718;5.324;2023-05-07T13:40:29;14.43;;;9.50;;
57055;SDS011;42945;51.718;5.324;2023-05-07T13:42:56;12.35;;;9.25;;
57055;SDS011;42945;51.718;5.324;2023-05-07T13:45:23;12.82;;;9.88;;
57055;SDS011;42945;51.718;5.324;2023-05-07T13:47:50;13.07;;;10.18;;
57055;SDS011;42945;51.718;5.324;2023-05-07T13:50:17;11.68;;;10.15;;
57055;SDS011;42945;51.718;5.324;2023-05-07T13:52:43;15.10;;;9.85;;
57055;SDS011;42945;51.718;5.324;2023-05-07T13:55:15;12.75;;;9.77;;
57055;SDS011;42945;51.718;5.324;2023-05-07T13:57:44;11.90;;;10.15;;
57055;SDS011;42945;51.718;5.324;2023-05-07T14:00:10;14.60;;;10.80;;
57055;SDS011;42945;51.718;5.324;2023-05-07T14:02:36;12.50;;;10.23;;
57055;SDS011;42945;51.718;5.324;2023-05-07T14:05:03;14.85;;;10.38;;
57055;SDS011;42945;51.718;5.324;2023-05-07T14:07:28;15.70;;;10.52;;
57055;SDS011;42945;51.718;5.324;2023-05-07T14:09:54;14.48;;;10.30;;
57055;SDS011;42945;51.718;5.324;2023-05-07T14:12:20;14.25;;;10.77;;
57055;SDS011;42945;51.718;5.324;2023-05-07T14:14:48;15.18;;;10.77;;
57055;SDS011;42945;51.718;5.324;2023-05-07T14:17:14;15.23;;;10.90;;
57055;SDS011;42945;51.718;5.324;2023-05-07T14:19:43;17.33;;;11.45;;
57055;SDS011;42945;51.718;5.324;2023-05-07T14:22:08;17.05;;;12.20;;
57055;SDS011;42945;51.718;5.324;2023-05-07T14:24:34;17.92;;;13.55;;
57055;SDS011;42945;51.718;5.324;2023-05-07T14:27:00;24.30;;;14.75;;
57055;SDS011;42945;51.718;5.324;2023-05-07T14:29:25;24.25;;;15.30;;
57055;SDS011;42945;51.718;5.324;2023-05-07T14:31:50;22.33;;;15.75;;
57055;SDS011;42945;51.718;5.324;2023-05-07T14:34:16;21.48;;;12.88;;
57055;SDS011;42945;51.718;5.324;2023-05-07T14:36:41;17.88;;;12.25;;
57055;SDS011;42945;51.718;5.324;2023-05-07T14:39:06;17.05;;;11.57;;
57055;SDS011;42945;51.718;5.324;2023-05-07T14:41:31;17.63;;;11.57;;
57055;SDS011;42945;51.718;5.324;2023-05-07T14:43:58;14.55;;;9.15;;
57055;SDS011;42945;51.718;5.324;2023-05-07T14:46:23;11.18;;;8.07;;
57055;SDS011;42945;51.718;5.324;2023-05-07T14:48:49;12.18;;;8.32;;